This is the latest recevied weather packets stored in our database for station/object HB9CJD-1. If no packets are shown the sender has not sent any weather packets the latest 1 day(s).
| Time | Temp. | Humidity | Pressure | Rain* | Wind** | Luminosity | Snow |
|---|---|---|---|---|---|---|---|
| 1778072367 | 10° C | 91% | 1012.1 hPa | - | - | - | - |
| 1778071764 | 10.56° C | 91% | 1011.9 hPa | - | - | - | - |
| 1778071160 | 10.56° C | 89% | 1011.6 hPa | - | - | - | - |
| 1778071160 | 10.56° C | 89% | 1011.6 hPa | - | - | - | - |
| 1778070557 | 10.56° C | 89% | 1011.3 hPa | - | - | - | - |
| 1778069954 | 11.11° C | 85% | 1011 hPa | - | - | - | - |
| 1778069954 | 11.11° C | 85% | 1011 hPa | - | - | - | - |
| 1778067541 | 12.78° C | 78% | 1010.2 hPa | - | - | - | - |
| 1778067541 | 12.78° C | 78% | 1010.2 hPa | - | - | - | - |
| 1778066938 | 13.33° C | 72% | 1010.1 hPa | - | - | - | - |
| 1778065731 | 13.89° C | 77% | 1009.9 hPa | - | - | - | - |
| 1778065128 | 13.89° C | 76% | 1010.1 hPa | - | - | - | - |
| 1778063318 | 13.89° C | 72% | 1010.1 hPa | - | - | - | - |
| 1778063318 | 13.89° C | 72% | 1010.1 hPa | - | - | - | - |
| 1778062715 | 13.33° C | 75% | 1010 hPa | - | - | - | - |
| 1778062715 | 13.33° C | 75% | 1010 hPa | - | - | - | - |
| 1778060905 | 13.33° C | 77% | 1010.2 hPa | - | - | - | - |
| 1778060905 | 13.33° C | 77% | 1010.2 hPa | - | - | - | - |
| 1778060302 | 13.89° C | 79% | 1010.3 hPa | - | - | - | - |
| 1778060302 | 13.89° C | 79% | 1010.3 hPa | - | - | - | - |
| 1778059095 | 13.89° C | 80% | 1010 hPa | - | - | - | - |
| 1778059095 | 13.89° C | 80% | 1010 hPa | - | - | - | - |
| 1778057889 | 12.78° C | 82% | 1009.9 hPa | - | - | - | - |
| 1778057889 | 12.78° C | 82% | 1009.9 hPa | - | - | - | - |
| 1778056079 | 13.33° C | 75% | 1010.1 hPa | - | - | - | - |
* Rain since midnight (hover to see other rain measurements)
** Current wind speed in m/s (hover to see current wind gust speed)